Time;durP1;ratioP1;P1;durP2;ratioP2;P2;SDS_P1;SDS_P2;PMS_P1;PMS_P2;Temp;Humidity;BMP_temperature;BMP_pressure;BME280_temperature;BME280_humidity;BME280_pressure;Samples;Min_cycle;Max_cycle;Signal;HPM_P1;HPM_P2
2023/08/13 00:02:17;;;;;;;3.72;3.05;;;;;;;;;;5070164;28;20029;-45
2023/08/13 00:04:43;;;;;;;6.60;3.47;;;;;;;;;;5060365;28;20035;-45
2023/08/13 00:07:09;;;;;;;5.77;3.90;;;;;;;;;;5069704;28;20271;-45
2023/08/13 00:09:35;;;;;;;8.15;3.95;;;;;;;;;;5066763;28;20020;-45
2023/08/13 00:12:00;;;;;;;5.25;3.35;;;;;;;;;;5055123;28;20032;-45
2023/08/13 00:14:25;;;;;;;8.37;3.10;;;;;;;;;;5056115;28;20037;-46
2023/08/13 00:16:50;;;;;;;5.97;3.03;;;;;;;;;;5056071;28;20056;-45
2023/08/13 00:19:16;;;;;;;5.50;4.00;;;;;;;;;;5063472;28;20583;-45
2023/08/13 00:21:41;;;;;;;5.83;4.20;;;;;;;;;;5062537;28;20028;-45
2023/08/13 00:24:07;;;;;;;6.03;3.80;;;;;;;;;;5061123;28;20761;-46
2023/08/13 00:26:32;;;;;;;5.88;3.85;;;;;;;;;;5052475;28;20274;-45
2023/08/13 00:28:57;;;;;;;5.03;3.95;;;;;;;;;;5044239;28;20029;-45
2023/08/13 00:31:22;;;;;;;7.37;4.20;;;;;;;;;;5052786;28;20029;-46
2023/08/13 00:33:48;;;;;;;7.33;4.17;;;;;;;;;;5063118;28;20279;-46
2023/08/13 00:36:13;;;;;;;8.47;5.30;;;;;;;;;;5055405;28;20013;-45
2023/08/13 00:38:39;;;;;;;5.83;4.07;;;;;;;;;;5056113;28;20031;-45
2023/08/13 00:41:04;;;;;;;5.80;4.18;;;;;;;;;;5062476;28;20278;-45
2023/08/13 00:43:30;;;;;;;7.57;4.88;;;;;;;;;;5065279;28;20017;-45
2023/08/13 00:45:55;;;;;;;7.13;4.90;;;;;;;;;;5055630;28;20016;-45
2023/08/13 00:48:20;;;;;;;8.15;4.70;;;;;;;;;;5050579;28;20049;-45
2023/08/13 00:50:46;;;;;;;5.70;3.58;;;;;;;;;;5054801;28;20029;-45
2023/08/13 00:53:12;;;;;;;8.18;4.30;;;;;;;;;;5060959;28;20013;-45
2023/08/13 00:55:37;;;;;;;7.47;3.70;;;;;;;;;;5055900;28;20491;-46
2023/08/13 00:58:02;;;;;;;8.20;4.00;;;;;;;;;;5053478;28;20027;-46
2023/08/13 01:00:29;;;;;;;6.82;4.13;;;;;;;;;;5054289;28;20037;-45
2023/08/13 01:02:54;;;;;;;4.30;3.13;;;;;;;;;;5055172;28;20094;-45
2023/08/13 01:05:21;;;;;;;6.47;3.27;;;;;;;;;;5045470;28;20021;-46
2023/08/13 01:07:54;;;;;;;4.93;3.08;;;;;;;;;;5059166;28;20274;-45
2023/08/13 01:10:35;;;;;;;6.00;3.95;;;;;;;;;;5054949;28;20032;-45
2023/08/13 01:13:19;;;;;;;18.02;6.97;;;;;;;;;;5059488;28;20098;-45
2023/08/13 01:15:45;;;;;;;5.43;3.88;;;;;;;;;;5039672;28;20028;-45
2023/08/13 01:18:11;;;;;;;8.68;4.38;;;;;;;;;;5054772;28;20017;-45
2023/08/13 01:20:41;;;;;;;4.57;3.50;;;;;;;;;;5054456;28;20025;-45
2023/08/13 01:23:07;;;;;;;3.20;2.22;;;;;;;;;;5058781;28;20028;-46
2023/08/13 01:25:32;;;;;;;6.57;3.50;;;;;;;;;;5053208;28;20035;-45
2023/08/13 01:28:08;;;;;;;5.03;3.30;;;;;;;;;;5053702;28;20263;-45
2023/08/13 01:30:39;;;;;;;4.70;3.10;;;;;;;;;;5049359;28;20025;-45
2023/08/13 01:33:06;;;;;;;5.30;3.20;;;;;;;;;;5057763;28;20513;-45
2023/08/13 01:35:32;;;;;;;6.47;2.95;;;;;;;;;;5055523;28;20036;-45
2023/08/13 01:38:01;;;;;;;4.30;2.85;;;;;;;;;;5062287;28;20056;-46
2023/08/13 01:40:27;;;;;;;3.63;2.53;;;;;;;;;;5063891;28;20020;-45
2023/08/13 01:42:52;;;;;;;6.95;3.22;;;;;;;;;;5063233;28;20025;-45
2023/08/13 01:45:17;;;;;;;3.67;2.40;;;;;;;;;;5062379;28;20467;-45
2023/08/13 01:47:43;;;;;;;4.43;3.13;;;;;;;;;;5058054;28;20366;-45
2023/08/13 01:50:08;;;;;;;5.65;2.85;;;;;;;;;;5062677;28;20021;-45
2023/08/13 01:52:33;;;;;;;6.57;2.33;;;;;;;;;;5069211;28;20087;-46
2023/08/13 01:54:59;;;;;;;5.53;2.97;;;;;;;;;;5032493;28;20048;-45
2023/08/13 01:57:24;;;;;;;5.60;2.40;;;;;;;;;;5060314;28;20331;-45
2023/08/13 01:59:49;;;;;;;5.30;2.80;;;;;;;;;;5062191;28;20055;-45
2023/08/13 02:02:14;;;;;;;8.33;2.73;;;;;;;;;;5059667;28;20028;-46
2023/08/13 02:04:40;;;;;;;4.93;2.33;;;;;;;;;;5054611;28;20761;-45
2023/08/13 02:07:05;;;;;;;6.70;2.40;;;;;;;;;;5063119;28;20044;-45
2023/08/13 02:09:30;;;;;;;4.47;2.67;;;;;;;;;;5058535;28;20116;-46
2023/08/13 02:11:55;;;;;;;6.87;2.70;;;;;;;;;;5053469;28;20379;-45
2023/08/13 02:14:21;;;;;;;3.60;2.43;;;;;;;;;;5057872;28;20310;-45
2023/08/13 02:16:46;;;;;;;5.63;2.43;;;;;;;;;;5052780;28;20498;-45
2023/08/13 02:19:11;;;;;;;4.97;2.40;;;;;;;;;;5045647;28;20024;-46
2023/08/13 02:21:37;;;;;;;4.97;2.63;;;;;;;;;;5050435;28;20028;-45
2023/08/13 02:24:02;;;;;;;4.30;2.50;;;;;;;;;;5043525;28;20059;-45
2023/08/13 02:26:27;;;;;;;5.18;2.35;;;;;;;;;;5048977;28;20275;-45
2023/08/13 02:28:52;;;;;;;4.40;2.70;;;;;;;;;;5039937;28;20008;-45
2023/08/13 02:31:18;;;;;;;6.30;2.53;;;;;;;;;;5052243;28;20020;-45
2023/08/13 02:33:43;;;;;;;2.77;2.00;;;;;;;;;;5052456;28;20033;-45
2023/08/13 02:36:08;;;;;;;5.00;2.53;;;;;;;;;;5055159;28;20547;-46
2023/08/13 02:38:34;;;;;;;6.03;2.35;;;;;;;;;;5051048;28;20388;-46
2023/08/13 02:40:59;;;;;;;3.20;2.10;;;;;;;;;;5049697;28;20960;-46
2023/08/13 02:43:31;;;;;;;3.80;2.40;;;;;;;;;;5052872;28;20108;-45
2023/08/13 02:45:56;;;;;;;3.45;1.85;;;;;;;;;;5045449;28;20930;-45
2023/08/13 02:48:22;;;;;;;3.70;2.23;;;;;;;;;;5048897;28;20104;-45
2023/08/13 02:50:47;;;;;;;5.10;2.13;;;;;;;;;;5056223;28;20017;-45
2023/08/13 02:53:12;;;;;;;5.77;2.40;;;;;;;;;;5050966;28;20294;-45
2023/08/13 02:55:37;;;;;;;4.43;2.70;;;;;;;;;;5050737;28;20501;-46
2023/08/13 02:58:03;;;;;;;5.07;2.20;;;;;;;;;;5053898;28;20029;-46
2023/08/13 03:00:28;;;;;;;3.83;2.33;;;;;;;;;;5053354;28;20035;-45
2023/08/13 03:02:53;;;;;;;4.80;2.47;;;;;;;;;;5047193;28;20021;-45
2023/08/13 03:05:18;;;;;;;5.90;2.75;;;;;;;;;;5053274;28;20274;-46
2023/08/13 03:07:44;;;;;;;3.90;2.37;;;;;;;;;;5052014;28;20067;-46
2023/08/13 03:10:09;;;;;;;6.05;2.65;;;;;;;;;;5053294;28;20039;-46
2023/08/13 03:12:34;;;;;;;4.30;2.37;;;;;;;;;;5058309;28;20036;-46
2023/08/13 03:14:59;;;;;;;3.77;2.40;;;;;;;;;;5056611;28;20600;-45
2023/08/13 03:17:25;;;;;;;5.27;2.50;;;;;;;;;;5053161;28;20031;-46
2023/08/13 03:19:50;;;;;;;4.63;2.00;;;;;;;;;;5055578;28;20037;-46
2023/08/13 03:22:15;;;;;;;3.53;1.80;;;;;;;;;;5062439;28;20445;-46
2023/08/13 03:24:41;;;;;;;4.97;2.17;;;;;;;;;;5049724;28;20456;-45
2023/08/13 03:27:06;;;;;;;6.07;2.07;;;;;;;;;;5041510;28;20020;-45
2023/08/13 03:29:31;;;;;;;4.50;2.20;;;;;;;;;;5043566;28;20287;-45
2023/08/13 03:31:56;;;;;;;4.77;2.90;;;;;;;;;;5061177;28;20043;-45
2023/08/13 03:34:22;;;;;;;5.87;2.53;;;;;;;;;;5067394;28;20278;-46
2023/08/13 03:36:47;;;;;;;4.57;2.30;;;;;;;;;;5067886;28;20622;-45
2023/08/13 03:39:12;;;;;;;19.35;10.30;;;;;;;;;;5061988;28;20279;-46
2023/08/13 03:41:37;;;;;;;5.43;2.47;;;;;;;;;;5070166;28;20020;-46
2023/08/13 03:44:03;;;;;;;7.67;2.60;;;;;;;;;;5067006;28;20021;-45
2023/08/13 03:46:28;;;;;;;3.72;2.20;;;;;;;;;;5060607;28;20036;-46
2023/08/13 03:48:53;;;;;;;6.73;2.27;;;;;;;;;;5062024;28;20471;-45
2023/08/13 03:51:19;;;;;;;3.80;1.88;;;;;;;;;;5068795;28;20357;-46
2023/08/13 03:53:44;;;;;;;3.30;1.80;;;;;;;;;;5062750;28;20087;-45
2023/08/13 03:59:12;;;;;;;5.28;1.80;;;;;;;;;;5058549;28;20308;-46
2023/08/13 04:01:37;;;;;;;3.13;1.90;;;;;;;;;;5058663;28;20023;-45
2023/08/13 04:04:03;;;;;;;2.13;1.03;;;;;;;;;;5057082;28;20301;-45
2023/08/13 04:06:28;;;;;;;29.23;12.75;;;;;;;;;;5056328;28;20328;-45
2023/08/13 04:08:53;;;;;;;4.33;1.90;;;;;;;;;;5063511;28;20099;-45
2023/08/13 04:11:19;;;;;;;6.03;2.17;;;;;;;;;;5055621;28;20036;-45
2023/08/13 04:13:44;;;;;;;5.50;1.87;;;;;;;;;;5055461;28;20424;-45
2023/08/13 04:16:09;;;;;;;3.57;2.20;;;;;;;;;;5057600;28;20207;-45
2023/08/13 04:18:34;;;;;;;9.47;2.30;;;;;;;;;;5064272;28;21035;-45
2023/08/13 04:21:00;;;;;;;3.30;2.27;;;;;;;;;;5059231;28;20110;-45
2023/08/13 04:23:25;;;;;;;3.17;1.70;;;;;;;;;;5056769;28;20800;-45
2023/08/13 04:25:50;;;;;;;4.57;2.00;;;;;;;;;;5054011;28;20028;-45
2023/08/13 04:28:15;;;;;;;4.73;1.83;;;;;;;;;;5057791;28;20029;-45
2023/08/13 04:30:41;;;;;;;3.40;2.00;;;;;;;;;;5060727;28;20159;-45
2023/08/13 04:33:06;;;;;;;2.97;1.60;;;;;;;;;;5044049;28;20028;-45
2023/08/13 04:35:31;;;;;;;4.95;1.98;;;;;;;;;;5060311;28;20361;-45
2023/08/13 04:37:56;;;;;;;3.63;1.47;;;;;;;;;;5053474;28;20073;-46
2023/08/13 04:40:22;;;;;;;3.90;2.00;;;;;;;;;;5055497;28;20063;-45
2023/08/13 04:42:47;;;;;;;3.57;2.07;;;;;;;;;;5057467;28;20567;-45
2023/08/13 04:45:12;;;;;;;4.60;2.07;;;;;;;;;;5054784;28;20048;-45
2023/08/13 04:47:38;;;;;;;6.70;2.20;;;;;;;;;;5042757;28;20278;-45
2023/08/13 04:50:03;;;;;;;5.45;2.15;;;;;;;;;;5057125;28;20017;-45
2023/08/13 04:52:28;;;;;;;9.07;2.45;;;;;;;;;;5055956;28;20046;-45
2023/08/13 04:54:54;;;;;;;4.67;1.90;;;;;;;;;;5053325;28;20087;-45
2023/08/13 04:57:20;;;;;;;5.25;1.95;;;;;;;;;;5054089;28;22521;-45
2023/08/13 04:59:45;;;;;;;2.90;1.92;;;;;;;;;;5055682;28;20507;-45
2023/08/13 05:02:10;;;;;;;5.00;1.87;;;;;;;;;;5054498;28;20439;-45
2023/08/13 05:04:35;;;;;;;5.77;2.03;;;;;;;;;;5057872;28;20090;-45
2023/08/13 05:07:01;;;;;;;3.80;1.80;;;;;;;;;;5054472;28;20701;-45
2023/08/13 05:09:26;;;;;;;5.43;1.50;;;;;;;;;;5051396;28;20085;-45
2023/08/13 05:11:51;;;;;;;4.77;1.23;;;;;;;;;;5052506;28;20385;-46
2023/08/13 05:14:16;;;;;;;4.75;1.77;;;;;;;;;;5053193;28;20087;-45
2023/08/13 05:16:42;;;;;;;6.33;1.80;;;;;;;;;;5056300;28;20024;-45
2023/08/13 05:19:07;;;;;;;8.37;2.30;;;;;;;;;;5055832;28;20028;-45
2023/08/13 05:21:32;;;;;;;5.17;1.73;;;;;;;;;;5041873;28;20033;-45
2023/08/13 05:23:57;;;;;;;1.70;1.03;;;;;;;;;;5052822;28;20498;-45
2023/08/13 05:26:23;;;;;;;12.33;2.10;;;;;;;;;;5055672;28;20290;-45
2023/08/13 05:28:48;;;;;;;6.80;1.57;;;;;;;;;;5054456;28;20348;-45
2023/08/13 05:31:13;;;;;;;5.23;1.77;;;;;;;;;;5057666;28;20270;-45
2023/08/13 05:33:39;;;;;;;4.22;1.77;;;;;;;;;;5049515;28;20385;-45
2023/08/13 05:36:04;;;;;;;4.88;1.75;;;;;;;;;;5050435;28;20089;-45
2023/08/13 05:38:31;;;;;;;3.30;1.55;;;;;;;;;;5058286;28;20046;-45
2023/08/13 05:40:56;;;;;;;8.18;2.15;;;;;;;;;;5062777;28;20017;-45
2023/08/13 05:43:21;;;;;;;6.73;1.80;;;;;;;;;;5066071;28;20104;-45
2023/08/13 05:45:46;;;;;;;5.70;1.60;;;;;;;;;;5067352;28;20016;-45
2023/08/13 05:48:12;;;;;;;4.57;1.80;;;;;;;;;;5063642;28;20838;-45
2023/08/13 05:50:37;;;;;;;11.07;3.63;;;;;;;;;;5061120;28;20176;-45
2023/08/13 05:53:02;;;;;;;7.80;3.28;;;;;;;;;;5062125;28;20027;-45
2023/08/13 05:55:27;;;;;;;6.53;1.80;;;;;;;;;;5054099;28;20045;-45
2023/08/13 05:57:53;;;;;;;5.93;1.90;;;;;;;;;;5046167;28;20645;-45
2023/08/13 06:00:18;;;;;;;6.37;2.13;;;;;;;;;;5057811;28;20263;-45
2023/08/13 06:02:43;;;;;;;7.20;2.00;;;;;;;;;;5054392;28;20426;-45
2023/08/13 06:05:09;;;;;;;5.90;1.73;;;;;;;;;;5056629;28;20101;-45
2023/08/13 06:07:34;;;;;;;4.20;1.35;;;;;;;;;;5063110;28;20267;-45
2023/08/13 06:10:03;;;;;;;4.93;2.07;;;;;;;;;;5062237;28;20020;-45
2023/08/13 06:12:29;;;;;;;3.95;2.08;;;;;;;;;;5060181;28;20279;-45
2023/08/13 06:14:54;;;;;;;8.70;3.53;;;;;;;;;;5059682;28;20032;-45
2023/08/13 08:30:02;;;;;;;4.25;1.75;;;;;;;;;;5057721;28;20707;-45
2023/08/13 08:32:28;;;;;;;7.22;1.33;;;;;;;;;;5039446;28;20113;-45
2023/08/13 08:34:54;;;;;;;4.25;1.08;;;;;;;;;;5059151;28;20536;-45
2023/08/13 08:37:19;;;;;;;3.40;1.00;;;;;;;;;;5031594;28;20040;-45
2023/08/13 08:39:44;;;;;;;4.03;1.33;;;;;;;;;;5046803;28;20369;-45
2023/08/13 08:42:11;;;;;;;2.90;1.00;;;;;;;;;;5054172;28;20466;-45
2023/08/13 08:44:38;;;;;;;5.35;1.08;;;;;;;;;;5058075;28;20017;-45
2023/08/13 08:47:05;;;;;;;6.13;2.25;;;;;;;;;;5054727;28;20028;-45
2023/08/13 08:49:30;;;;;;;6.75;1.58;;;;;;;;;;5063846;28;20025;-45
2023/08/13 08:51:56;;;;;;;8.07;1.23;;;;;;;;;;5059246;28;20111;-45
2023/08/13 08:54:21;;;;;;;6.63;1.30;;;;;;;;;;5055833;28;20119;-45
2023/08/13 08:56:46;;;;;;;5.77;0.83;;;;;;;;;;5057814;28;20274;-45
2023/08/13 08:59:11;;;;;;;4.80;1.10;;;;;;;;;;5040280;28;20649;-46
2023/08/13 09:01:37;;;;;;;6.07;1.30;;;;;;;;;;5045337;28;20271;-45
2023/08/13 09:04:03;;;;;;;7.10;1.88;;;;;;;;;;5053237;28;20398;-45
2023/08/13 09:06:46;;;;;;;7.28;1.25;;;;;;;;;;5054416;28;20077;-45
2023/08/13 09:09:12;;;;;;;8.07;1.27;;;;;;;;;;5055232;28;20051;-45
2023/08/13 09:11:37;;;;;;;6.33;1.40;;;;;;;;;;5036729;28;20411;-45
2023/08/13 09:14:03;;;;;;;17.47;4.83;;;;;;;;;;5050504;28;20104;-45
2023/08/13 09:16:28;;;;;;;12.15;1.65;;;;;;;;;;5027366;28;20111;-45
2023/08/13 09:18:53;;;;;;;11.17;1.90;;;;;;;;;;5057054;28;20043;-45
2023/08/13 09:21:23;;;;;;;5.67;1.50;;;;;;;;;;5053232;28;20056;-45
2023/08/13 09:23:48;;;;;;;7.05;2.70;;;;;;;;;;5060110;28;20047;-45
2023/08/13 09:26:14;;;;;;;9.10;1.60;;;;;;;;;;5060218;28;20376;-45
2023/08/13 09:28:43;;;;;;;5.35;1.45;;;;;;;;;;5059104;28;20295;-45
2023/08/13 09:31:08;;;;;;;7.88;2.30;;;;;;;;;;5042778;28;20959;-45
2023/08/13 09:33:33;;;;;;;6.68;1.40;;;;;;;;;;5035674;28;20043;-45
2023/08/13 09:35:59;;;;;;;9.60;1.80;;;;;;;;;;5038746;28;20056;-45
2023/08/13 09:38:24;;;;;;;8.98;1.73;;;;;;;;;;5067127;28;20447;-45
2023/08/13 09:40:50;;;;;;;5.40;1.88;;;;;;;;;;5057603;28;21330;-45
2023/08/13 09:43:16;;;;;;;5.18;1.48;;;;;;;;;;5051095;28;20029;-45
2023/08/13 09:45:43;;;;;;;8.55;1.67;;;;;;;;;;5051883;28;20036;-45
2023/08/13 09:48:10;;;;;;;5.88;2.03;;;;;;;;;;5061300;28;20044;-45
2023/08/13 09:50:39;;;;;;;5.65;1.50;;;;;;;;;;5055684;28;20026;-46
2023/08/13 09:53:07;;;;;;;5.35;1.40;;;;;;;;;;5067577;28;20028;-45
2023/08/13 09:55:34;;;;;;;8.05;2.05;;;;;;;;;;5058554;28;20573;-45
2023/08/13 09:58:04;;;;;;;7.55;1.83;;;;;;;;;;5059744;28;20186;-45
2023/08/13 10:00:29;;;;;;;6.07;1.92;;;;;;;;;;5062305;28;21149;-45
2023/08/13 10:02:55;;;;;;;9.93;2.00;;;;;;;;;;5041620;28;21600;-45
2023/08/13 10:05:20;;;;;;;7.60;2.15;;;;;;;;;;5041259;28;20032;-45
2023/08/13 10:07:46;;;;;;;6.72;1.98;;;;;;;;;;5042825;28;20577;-45
2023/08/13 10:10:11;;;;;;;6.00;2.20;;;;;;;;;;5053978;28;20064;-45
2023/08/13 10:12:37;;;;;;;10.50;2.22;;;;;;;;;;5048558;28;20032;-45
2023/08/13 10:15:03;;;;;;;7.45;1.70;;;;;;;;;;5039492;28;20040;-45
2023/08/13 10:17:29;;;;;;;5.97;2.33;;;;;;;;;;5039402;28;20032;-45
2023/08/13 10:19:55;;;;;;;4.30;2.05;;;;;;;;;;5042536;28;20136;-45
2023/08/13 10:22:30;;;;;;;7.55;2.33;;;;;;;;;;5041951;28;20028;-45
2023/08/13 10:24:55;;;;;;;5.93;1.90;;;;;;;;;;5038030;28;20020;-45
2023/08/13 10:27:21;;;;;;;8.93;1.40;;;;;;;;;;5042984;28;20077;-45
2023/08/13 10:29:47;;;;;;;6.68;2.05;;;;;;;;;;5045157;28;20807;-45
2023/08/13 10:32:16;;;;;;;4.73;1.87;;;;;;;;;;5048580;28;20029;-45
2023/08/13 10:34:50;;;;;;;6.55;1.85;;;;;;;;;;5044084;28;20349;-45
2023/08/13 10:37:19;;;;;;;8.48;1.63;;;;;;;;;;5045936;28;20502;-45
2023/08/13 10:40:02;;;;;;;9.95;1.80;;;;;;;;;;5050303;28;20114;-45
2023/08/13 10:42:36;;;;;;;7.53;1.70;;;;;;;;;;5048572;28;20031;-45
2023/08/13 10:45:05;;;;;;;4.68;1.48;;;;;;;;;;5042185;28;20147;-45
2023/08/13 10:47:40;;;;;;;5.55;1.40;;;;;;;;;;5043773;28;20527;-45
2023/08/13 10:50:17;;;;;;;7.20;1.55;;;;;;;;;;5044613;28;20027;-45
2023/08/13 10:52:45;;;;;;;8.32;1.75;;;;;;;;;;5043553;28;20028;-45
2023/08/13 10:55:10;;;;;;;4.88;1.60;;;;;;;;;;5053081;28;20024;-45
2023/08/13 10:57:38;;;;;;;10.75;2.28;;;;;;;;;;5047661;28;21625;-45
2023/08/13 11:00:03;;;;;;;6.88;1.77;;;;;;;;;;5043356;28;20028;-45
2023/08/13 11:02:30;;;;;;;5.15;1.58;;;;;;;;;;5041717;28;20031;-45
2023/08/13 11:04:56;;;;;;;2.55;1.00;;;;;;;;;;5044814;28;20024;-46
2023/08/13 11:07:21;;;;;;;6.35;1.80;;;;;;;;;;5044116;28;20033;-46
2023/08/13 11:09:47;;;;;;;10.40;2.47;;;;;;;;;;5044741;28;20407;-45
2023/08/13 11:12:12;;;;;;;9.27;1.75;;;;;;;;;;5040818;28;20024;-46
2023/08/13 11:14:38;;;;;;;12.13;2.40;;;;;;;;;;5043854;28;20024;-45
2023/08/13 11:17:03;;;;;;;3.78;1.30;;;;;;;;;;5045936;28;20271;-45
2023/08/13 11:19:29;;;;;;;4.32;1.17;;;;;;;;;;5039018;28;20109;-45
2023/08/13 11:21:55;;;;;;;5.10;1.88;;;;;;;;;;5041425;28;20017;-46
2023/08/13 11:24:21;;;;;;;6.70;2.95;;;;;;;;;;5020493;28;20031;-45
2023/08/13 11:26:49;;;;;;;5.68;1.75;;;;;;;;;;5033033;28;20487;-46
2023/08/13 11:29:17;;;;;;;9.80;1.50;;;;;;;;;;5047026;28;20016;-46
2023/08/13 11:31:43;;;;;;;4.55;2.35;;;;;;;;;;5040538;28;20027;-45
2023/08/13 11:34:09;;;;;;;67.32;31.08;;;;;;;;;;5041167;28;20412;-45
2023/08/13 11:36:35;;;;;;;6.53;2.17;;;;;;;;;;5042919;28;20033;-45
2023/08/13 11:39:01;;;;;;;6.82;1.80;;;;;;;;;;5044168;28;20017;-45
2023/08/13 11:41:26;;;;;;;7.30;2.03;;;;;;;;;;5064222;28;20033;-45
2023/08/13 11:43:52;;;;;;;4.70;1.73;;;;;;;;;;5058339;28;20029;-45
2023/08/13 11:46:18;;;;;;;87.50;40.63;;;;;;;;;;5058465;28;20025;-45
2023/08/13 11:48:43;;;;;;;6.33;2.00;;;;;;;;;;5055115;28;20028;-45
2023/08/13 11:51:11;;;;;;;5.60;1.70;;;;;;;;;;5056465;28;20846;-45
2023/08/13 11:53:40;;;;;;;9.50;1.90;;;;;;;;;;5060219;28;20024;-45
2023/08/13 11:56:05;;;;;;;6.10;1.75;;;;;;;;;;5066763;28;20117;-45
2023/08/13 11:58:30;;;;;;;157.70;80.33;;;;;;;;;;5069416;28;20116;-46
2023/08/13 12:00:56;;;;;;;264.33;134.63;;;;;;;;;;5066105;28;20387;-45
2023/08/13 12:03:21;;;;;;;249.93;128.15;;;;;;;;;;5058884;28;20797;-45
2023/08/13 12:05:46;;;;;;;4.72;1.98;;;;;;;;;;5057517;28;20028;-45
2023/08/13 12:08:13;;;;;;;6.37;1.53;;;;;;;;;;5062503;28;20021;-45
2023/08/13 12:10:39;;;;;;;164.38;84.75;;;;;;;;;;5063093;28;20119;-45
2023/08/13 12:13:04;;;;;;;4.35;2.00;;;;;;;;;;5056656;28;20585;-46
2023/08/13 12:15:30;;;;;;;4.32;1.70;;;;;;;;;;5063312;28;20029;-46
2023/08/13 12:17:56;;;;;;;5.13;1.70;;;;;;;;;;5055512;28;20021;-45
2023/08/13 12:20:22;;;;;;;7.68;2.00;;;;;;;;;;5060397;28;20454;-46
2023/08/13 12:22:48;;;;;;;7.10;2.00;;;;;;;;;;5047152;28;20739;-46
2023/08/13 12:25:13;;;;;;;7.28;2.40;;;;;;;;;;5047292;28;21693;-45
2023/08/13 12:27:38;;;;;;;6.87;1.70;;;;;;;;;;5043920;28;20032;-45
2023/08/13 12:30:04;;;;;;;5.17;1.87;;;;;;;;;;5048766;28;20047;-45
2023/08/13 12:32:30;;;;;;;7.03;1.95;;;;;;;;;;5055303;28;20270;-45
2023/08/13 12:34:55;;;;;;;9.80;2.75;;;;;;;;;;5062413;28;20035;-45
2023/08/13 12:37:20;;;;;;;5.50;1.40;;;;;;;;;;5062316;28;20058;-46
2023/08/13 12:39:46;;;;;;;11.50;1.80;;;;;;;;;;5055384;28;20051;-45
2023/08/13 12:42:11;;;;;;;98.33;45.23;;;;;;;;;;5061226;28;20028;-45
2023/08/13 12:44:36;;;;;;;463.40;245.32;;;;;;;;;;5058417;28;20322;-45
2023/08/13 12:47:02;;;;;;;4.87;1.50;;;;;;;;;;5057059;28;20029;-45
2023/08/13 12:49:27;;;;;;;6.57;1.50;;;;;;;;;;5047429;28;20305;-46
2023/08/13 12:51:52;;;;;;;3.87;1.43;;;;;;;;;;5045419;28;20138;-46
2023/08/13 12:54:17;;;;;;;4.70;1.30;;;;;;;;;;5051908;28;20020;-45
2023/08/13 12:56:43;;;;;;;4.60;1.50;;;;;;;;;;5050625;28;20152;-47
2023/08/13 12:59:08;;;;;;;4.60;1.07;;;;;;;;;;5047109;28;20274;-45
2023/08/13 13:01:33;;;;;;;19.50;5.43;;;;;;;;;;5052210;28;20066;-46
2023/08/13 13:03:58;;;;;;;6.97;1.60;;;;;;;;;;5046710;28;20031;-46
2023/08/13 13:06:24;;;;;;;7.53;1.77;;;;;;;;;;5040641;28;20458;-45
2023/08/13 13:08:49;;;;;;;8.90;1.83;;;;;;;;;;5049878;28;20028;-45
2023/08/13 13:11:14;;;;;;;6.70;1.50;;;;;;;;;;5047201;28;20483;-45
2023/08/13 13:13:40;;;;;;;5.70;1.27;;;;;;;;;;5046274;28;20063;-45
2023/08/13 13:16:05;;;;;;;7.00;1.33;;;;;;;;;;5051067;28;20654;-45
2023/08/13 13:18:31;;;;;;;4.70;1.50;;;;;;;;;;5047555;28;20024;-45
2023/08/13 13:20:56;;;;;;;5.57;1.75;;;;;;;;;;5047924;28;20325;-46
2023/08/13 13:23:22;;;;;;;5.33;1.50;;;;;;;;;;5053312;28;20028;-45
2023/08/13 13:25:47;;;;;;;7.00;1.37;;;;;;;;;;5045286;28;20654;-45
2023/08/13 13:28:12;;;;;;;4.78;1.60;;;;;;;;;;5045694;28;20028;-45
2023/08/13 13:30:38;;;;;;;4.80;1.30;;;;;;;;;;5043051;28;20067;-45
2023/08/13 13:33:04;;;;;;;4.28;1.48;;;;;;;;;;5046394;28;20274;-45
2023/08/13 13:35:30;;;;;;;5.15;1.30;;;;;;;;;;5044742;28;20047;-45
2023/08/13 13:37:55;;;;;;;111.30;45.40;;;;;;;;;;5054116;28;20028;-46
2023/08/13 13:40:21;;;;;;;4.78;1.50;;;;;;;;;;5062550;28;20391;-45
2023/08/13 13:42:46;;;;;;;5.40;1.98;;;;;;;;;;5062640;28;20024;-46
2023/08/13 13:45:11;;;;;;;9.60;2.45;;;;;;;;;;5058492;28;20051;-45
2023/08/13 13:47:37;;;;;;;7.80;1.67;;;;;;;;;;5054591;28;20028;-45
2023/08/13 13:50:02;;;;;;;7.97;1.80;;;;;;;;;;5062726;28;20467;-45
2023/08/13 13:52:27;;;;;;;6.60;1.73;;;;;;;;;;5061000;28;20349;-46
2023/08/13 13:54:54;;;;;;;4.50;1.60;;;;;;;;;;5060877;28;20045;-46
2023/08/13 13:57:19;;;;;;;5.72;2.40;;;;;;;;;;5059950;28;20039;-45
2023/08/13 13:59:44;;;;;;;5.40;1.70;;;;;;;;;;5060068;28;20033;-45
2023/08/13 14:02:09;;;;;;;4.37;1.43;;;;;;;;;;5056047;28;20286;-45
2023/08/13 14:04:35;;;;;;;6.37;1.60;;;;;;;;;;5058990;28;20032;-46
2023/08/13 14:07:00;;;;;;;3.40;1.20;;;;;;;;;;5060516;28;20036;-45
2023/08/13 14:09:25;;;;;;;2.43;1.17;;;;;;;;;;5060819;28;20028;-46
2023/08/13 14:11:51;;;;;;;7.97;1.93;;;;;;;;;;5057388;28;20290;-46
2023/08/13 14:14:16;;;;;;;8.67;1.80;;;;;;;;;;5055961;28;20032;-45
2023/08/13 14:16:41;;;;;;;213.10;105.67;;;;;;;;;;5059844;28;20297;-46
2023/08/13 14:19:06;;;;;;;6.83;1.60;;;;;;;;;;5050785;28;20749;-45
2023/08/13 14:21:32;;;;;;;4.20;1.73;;;;;;;;;;5055369;28;20363;-46
2023/08/13 14:23:57;;;;;;;5.30;1.30;;;;;;;;;;5044644;28;20033;-46
2023/08/13 14:26:22;;;;;;;4.97;1.30;;;;;;;;;;5042278;28;20967;-46
2023/08/13 14:28:48;;;;;;;6.47;1.60;;;;;;;;;;5042311;28;20043;-46
2023/08/13 14:31:13;;;;;;;6.07;2.10;;;;;;;;;;5060606;28;20267;-46
2023/08/13 14:33:38;;;;;;;4.47;1.77;;;;;;;;;;5060233;28;20153;-46
2023/08/13 14:36:04;;;;;;;5.97;1.70;;;;;;;;;;5058954;28;20128;-46
2023/08/13 14:38:29;;;;;;;5.40;1.27;;;;;;;;;;5061485;28;20591;-45
2023/08/13 14:40:54;;;;;;;5.53;1.90;;;;;;;;;;5062898;28;20021;-46
2023/08/13 14:43:20;;;;;;;5.95;1.73;;;;;;;;;;5061969;28;20518;-46
2023/08/13 14:45:45;;;;;;;3.92;1.50;;;;;;;;;;5065763;28;20028;-46
2023/08/13 14:48:10;;;;;;;6.15;1.70;;;;;;;;;;5062769;28;20510;-46
2023/08/13 14:50:36;;;;;;;5.77;1.50;;;;;;;;;;5060924;28;20397;-46
2023/08/13 14:53:01;;;;;;;5.45;1.48;;;;;;;;;;5060403;28;20081;-45
2023/08/13 14:55:26;;;;;;;5.25;1.60;;;;;;;;;;5064934;28;20028;-46
2023/08/13 14:57:51;;;;;;;5.07;1.93;;;;;;;;;;5063320;28;20029;-46
2023/08/13 15:00:18;;;;;;;3.43;1.40;;;;;;;;;;5061461;28;20050;-46
2023/08/13 15:02:44;;;;;;;8.02;1.65;;;;;;;;;;5062459;28;20016;-46
2023/08/13 15:05:09;;;;;;;6.57;1.77;;;;;;;;;;5061301;28;20020;-46
2023/08/13 15:07:35;;;;;;;3.22;1.77;;;;;;;;;;5064328;28;20032;-45
2023/08/13 15:10:02;;;;;;;6.93;1.67;;;;;;;;;;5064554;28;20067;-46
2023/08/13 15:12:27;;;;;;;5.80;1.27;;;;;;;;;;5065013;28;20033;-46
2023/08/13 15:14:52;;;;;;;3.03;1.40;;;;;;;;;;5064437;28;20378;-46
2023/08/13 15:17:18;;;;;;;4.77;1.30;;;;;;;;;;5059880;28;20395;-46
2023/08/13 15:19:43;;;;;;;4.47;1.27;;;;;;;;;;5060320;28;20838;-46
2023/08/13 15:22:08;;;;;;;3.23;1.60;;;;;;;;;;5065147;28;20025;-46
2023/08/13 15:24:33;;;;;;;6.00;1.50;;;;;;;;;;5066663;28;20391;-46
2023/08/13 15:26:59;;;;;;;3.50;1.70;;;;;;;;;;5058741;28;20032;-46
2023/08/13 15:29:24;;;;;;;6.97;2.03;;;;;;;;;;5065256;28;20017;-46
2023/08/13 15:31:49;;;;;;;6.97;1.90;;;;;;;;;;5063069;28;20846;-46
2023/08/13 15:34:15;;;;;;;5.37;1.60;;;;;;;;;;5063472;28;20262;-46
2023/08/13 15:36:40;;;;;;;9.13;1.90;;;;;;;;;;5066172;28;20025;-46
2023/08/13 15:39:05;;;;;;;4.40;1.55;;;;;;;;;;5066490;28;20017;-46
2023/08/13 15:41:31;;;;;;;6.50;1.90;;;;;;;;;;5066266;28;20029;-45
2023/08/13 15:43:56;;;;;;;3.08;1.42;;;;;;;;;;5062059;28;20031;-46
2023/08/13 15:46:21;;;;;;;42.30;18.93;;;;;;;;;;5062574;28;20044;-46
2023/08/13 15:48:47;;;;;;;8.80;2.60;;;;;;;;;;5069992;28;20031;-46
2023/08/13 15:51:12;;;;;;;3.60;1.55;;;;;;;;;;5064041;28;20259;-45
2023/08/13 15:53:39;;;;;;;6.38;1.77;;;;;;;;;;5067076;28;20033;-46
2023/08/13 15:56:04;;;;;;;4.00;1.55;;;;;;;;;;5064490;28;20033;-45
2023/08/13 15:58:29;;;;;;;5.47;1.92;;;;;;;;;;5061412;28;20074;-45
2023/08/13 16:00:54;;;;;;;6.07;1.50;;;;;;;;;;5064225;28;20033;-46
2023/08/13 16:03:20;;;;;;;5.20;1.70;;;;;;;;;;5061272;28;20036;-45
2023/08/13 16:05:45;;;;;;;4.03;1.70;;;;;;;;;;5064316;28;21247;-46
2023/08/13 16:08:11;;;;;;;6.10;1.70;;;;;;;;;;5060147;28;20066;-46
2023/08/13 16:10:36;;;;;;;5.40;2.05;;;;;;;;;;5060275;28;20514;-46
2023/08/13 16:13:01;;;;;;;5.32;1.70;;;;;;;;;;5062920;28;20107;-46
2023/08/13 16:15:27;;;;;;;4.10;1.60;;;;;;;;;;5062224;28;20124;-46
2023/08/13 16:17:52;;;;;;;6.53;3.80;;;;;;;;;;5060621;28;20510;-46
2023/08/13 16:20:17;;;;;;;5.93;2.10;;;;;;;;;;5061614;28;20765;-46
2023/08/13 16:22:43;;;;;;;264.30;132.77;;;;;;;;;;5058287;28;20287;-45
2023/08/13 16:25:09;;;;;;;572.63;294.27;;;;;;;;;;5061698;28;20122;-46
2023/08/13 16:27:34;;;;;;;618.50;326.60;;;;;;;;;;5056029;28;20107;-46
2023/08/13 16:30:00;;;;;;;422.17;221.60;;;;;;;;;;5061046;28;20016;-46
2023/08/13 16:32:25;;;;;;;593.55;311.88;;;;;;;;;;5060669;28;20029;-46
2023/08/13 16:34:51;;;;;;;433.55;235.30;;;;;;;;;;5053482;28;20028;-46
2023/08/13 16:37:16;;;;;;;50.72;20.67;;;;;;;;;;5059899;28;20021;-46
2023/08/13 16:39:42;;;;;;;206.38;105.32;;;;;;;;;;5064231;28;20015;-45
2023/08/13 16:42:07;;;;;;;455.50;222.50;;;;;;;;;;5068753;28;20016;-45
2023/08/13 16:44:32;;;;;;;584.40;300.97;;;;;;;;;;5065613;28;20287;-46
2023/08/13 16:46:57;;;;;;;911.93;470.00;;;;;;;;;;5065775;28;20769;-46
2023/08/13 16:49:25;;;;;;;4.10;1.77;;;;;;;;;;5065626;28;20271;-46